Time;durP1;ratioP1;P1;durP2;ratioP2;P2;SDS_P1;SDS_P2;PMS_P1;PMS_P2;Temp;Humidity;BMP_temperature;BMP_pressure;BME280_temperature;BME280_humidity;BME280_pressure;Samples;Min_cycle;Max_cycle;Signal;HPM_P1;HPM_P2
2020/12/28 00:02:08;;;;;;;0.70;0.30;;;5.20;93.40;;;;;;5081407;28;20037;-81
2020/12/28 00:04:34;;;;;;;2.15;0.73;;;5.20;94.10;;;;;;5080364;28;20130;-71
2020/12/28 00:07:00;;;;;;;1.20;0.47;;;5.20;94.60;;;;;;5062245;28;20082;-69
2020/12/28 00:09:26;;;;;;;1.67;0.60;;;5.10;94.10;;;;;;5078547;28;20063;-75
2020/12/28 00:11:54;;;;;;;2.28;1.25;;;5.10;94.50;;;;;;5064860;28;20098;-72
2020/12/28 00:14:20;;;;;;;2.90;0.98;;;5.00;94.80;;;;;;5080182;28;20102;-74
2020/12/28 00:16:45;;;;;;;3.75;1.10;;;5.00;95.10;;;;;;5081969;28;20100;-72
2020/12/28 00:19:12;;;;;;;2.00;0.80;;;4.90;95.10;;;;;;5078636;28;20347;-72
2020/12/28 00:21:38;;;;;;;1.95;0.80;;;4.80;95.60;;;;;;5080805;28;20024;-72
2020/12/28 00:24:04;;;;;;;3.33;1.30;;;4.80;96.10;;;;;;5081112;28;20030;-82
2020/12/28 00:26:36;;;;;;;2.08;0.85;;;4.80;96.40;;;;;;5079298;28;20059;-72
2020/12/28 00:29:02;;;;;;;1.35;0.80;;;4.70;96.00;;;;;;5080893;28;20028;-73
2020/12/28 00:31:27;;;;;;;3.22;1.13;;;4.70;96.80;;;;;;5081057;28;20036;-68
2020/12/28 00:33:53;;;;;;;1.65;0.75;;;4.70;96.90;;;;;;5062009;28;20111;-71
2020/12/28 00:36:18;;;;;;;1.88;0.80;;;4.60;96.90;;;;;;5079804;28;20372;-70
2020/12/28 00:38:44;;;;;;;2.17;0.90;;;4.60;97.20;;;;;;5081521;28;20029;-75
2020/12/28 00:41:11;;;;;;;2.05;0.80;;;4.60;97.60;;;;;;5078555;28;20028;-74
2020/12/28 00:43:40;;;;;;;3.83;0.80;;;4.50;97.30;;;;;;5080703;28;20020;-68
2020/12/28 00:46:07;;;;;;;2.10;0.60;;;4.50;98.20;;;;;;5081108;28;20099;-82
2020/12/28 00:48:33;;;;;;;2.92;1.02;;;4.50;98.40;;;;;;5079549;28;20477;-72
2020/12/28 00:50:59;;;;;;;4.20;0.90;;;4.50;98.90;;;;;;5080255;28;20075;-72
2020/12/28 00:53:24;;;;;;;1.95;0.70;;;4.40;99.30;;;;;;5080743;28;20021;-74
2020/12/28 00:55:50;;;;;;;1.92;1.00;;;4.40;99.60;;;;;;5079035;28;20099;-72
2020/12/28 00:58:15;;;;;;;0.77;0.60;;;4.40;99.70;;;;;;5062919;28;20052;-72
2020/12/28 01:00:41;;;;;;;3.83;0.93;;;4.40;99.60;;;;;;5081332;28;20552;-72
2020/12/28 01:03:07;;;;;;;0.90;0.60;;;4.40;99.40;;;;;;5079132;28;20359;-74
2020/12/28 01:05:32;;;;;;;1.85;0.60;;;4.40;99.80;;;;;;5085509;28;20369;-71
2020/12/28 01:07:58;;;;;;;1.02;0.68;;;4.40;99.90;;;;;;5073227;28;20390;-71
2020/12/28 01:10:25;;;;;;;0.75;0.57;;;4.40;99.90;;;;;;5070697;28;20028;-75
2020/12/28 01:12:51;;;;;;;1.02;0.63;;;4.40;99.90;;;;;;5071641;28;20051;-70
2020/12/28 01:15:17;;;;;;;1.20;0.40;;;4.40;99.90;;;;;;5070843;28;20021;-72
2020/12/28 01:17:42;;;;;;;0.95;0.60;;;4.40;99.90;;;;;;5071764;28;20376;-71
2020/12/28 01:20:08;;;;;;;0.90;0.40;;;4.40;99.90;;;;;;5072485;28;20032;-72
2020/12/28 01:22:34;;;;;;;1.08;0.73;;;4.30;99.90;;;;;;5075364;28;20031;-72
2020/12/28 01:24:59;;;;;;;1.23;0.57;;;4.30;99.90;;;;;;5075343;28;20110;-72
2020/12/28 01:27:27;;;;;;;1.45;0.60;;;4.20;99.90;;;;;;5074371;28;20040;-72
2020/12/28 01:29:53;;;;;;;0.40;0.38;;;4.10;99.90;;;;;;5057020;28;20039;-73
2020/12/28 01:32:18;;;;;;;0.63;0.63;;;4.10;99.90;;;;;;5074475;28;20029;-72
2020/12/28 01:34:44;;;;;;;0.73;0.65;;;4.00;99.90;;;;;;5074959;28;20024;-72
2020/12/28 01:37:10;;;;;;;0.75;0.40;;;4.00;99.90;;;;;;5073947;28;20020;-72
2020/12/28 01:39:36;;;;;;;0.77;0.50;;;3.90;99.90;;;;;;5074839;28;20411;-71
2020/12/28 01:42:02;;;;;;;0.55;0.45;;;3.90;99.90;;;;;;5075059;28;20025;-71
2020/12/28 01:44:27;;;;;;;1.58;0.60;;;3.90;99.90;;;;;;5074075;28;20023;-71
2020/12/28 01:46:53;;;;;;;2.85;0.63;;;3.90;99.90;;;;;;5074893;28;20031;-72
2020/12/28 01:49:19;;;;;;;2.25;0.70;;;3.90;99.90;;;;;;5073964;28;20056;-71
2020/12/28 01:51:45;;;;;;;2.25;0.60;;;3.90;99.90;;;;;;5074610;28;20127;-71
2020/12/28 01:54:11;;;;;;;1.02;0.90;;;4.00;99.90;;;;;;5074112;28;20038;-73
2020/12/28 01:56:38;;;;;;;1.58;0.75;;;4.00;99.90;;;;;;5074534;28;20029;-72
2020/12/28 01:59:04;;;;;;;1.70;0.73;;;4.00;99.90;;;;;;5074601;28;20107;-81
2020/12/28 02:01:38;;;;;;;1.00;0.43;;;4.00;99.90;;;;;;5074474;28;20063;-71
2020/12/28 02:04:04;;;;;;;1.50;0.60;;;4.00;99.90;;;;;;5074412;28;20039;-82
2020/12/28 02:06:30;;;;;;;4.63;0.75;;;3.90;99.90;;;;;;5073625;28;20033;-74
2020/12/28 02:08:55;;;;;;;1.08;0.60;;;3.90;99.90;;;;;;5074603;28;20025;-72
2020/12/28 02:11:21;;;;;;;2.05;1.00;;;3.90;99.90;;;;;;5073516;28;20477;-71
2020/12/28 02:13:47;;;;;;;3.13;1.02;;;3.90;99.90;;;;;;5074602;28;20450;-71
2020/12/28 02:16:12;;;;;;;5.35;1.25;;;3.90;99.90;;;;;;5073458;28;20033;-71
2020/12/28 02:18:38;;;;;;;0.73;0.60;;;3.90;99.90;;;;;;5074486;28;20032;-70
2020/12/28 02:21:04;;;;;;;0.85;0.50;;;3.90;99.90;;;;;;5074271;28;20031;-76
2020/12/28 02:23:29;;;;;;;1.52;0.70;;;4.00;99.90;;;;;;5073655;28;20028;-71
2020/12/28 02:25:55;;;;;;;2.28;0.82;;;4.10;99.90;;;;;;5074253;28;20056;-72
2020/12/28 02:28:21;;;;;;;2.15;0.60;;;4.10;99.90;;;;;;5073237;28;20032;-72
2020/12/28 02:30:46;;;;;;;1.63;1.00;;;4.10;99.90;;;;;;5073593;28;20041;-72
2020/12/28 02:33:12;;;;;;;1.42;0.70;;;4.10;99.90;;;;;;5073207;28;20055;-73
2020/12/28 02:35:37;;;;;;;2.42;1.00;;;4.00;99.90;;;;;;5074137;28;20462;-70
2020/12/28 02:38:03;;;;;;;1.52;0.75;;;4.00;99.90;;;;;;5073830;28;20060;-75
2020/12/28 02:40:29;;;;;;;1.48;1.00;;;3.90;99.90;;;;;;5073156;28;20032;-76
2020/12/28 02:42:54;;;;;;;1.73;0.88;;;3.90;99.90;;;;;;5074329;28;20422;-72
2020/12/28 02:45:20;;;;;;;1.38;0.90;;;3.90;99.90;;;;;;5073018;28;20059;-72
2020/12/28 02:47:45;;;;;;;3.65;0.73;;;3.90;99.90;;;;;;5073879;28;20096;-69
2020/12/28 02:50:11;;;;;;;1.13;0.80;;;3.80;99.90;;;;;;5085817;28;20232;-72
2020/12/28 02:52:37;;;;;;;3.38;0.90;;;3.80;99.90;;;;;;5093815;28;20099;-72
2020/12/28 02:55:02;;;;;;;1.67;0.80;;;3.80;99.90;;;;;;5094008;28;20521;-68
2020/12/28 02:57:28;;;;;;;2.20;1.08;;;3.80;99.90;;;;;;5092892;28;20580;-74
2020/12/28 02:59:54;;;;;;;2.55;0.60;;;3.70;99.90;;;;;;5093499;28;20153;-76
2020/12/28 03:02:19;;;;;;;1.50;1.00;;;3.70;99.90;;;;;;5092978;28;20081;-70
2020/12/28 03:04:45;;;;;;;2.03;0.57;;;3.70;99.90;;;;;;5093851;28;20115;-70
2020/12/28 03:07:10;;;;;;;1.05;0.63;;;3.60;99.90;;;;;;5063057;28;20102;-66
2020/12/28 03:09:36;;;;;;;0.57;0.40;;;3.60;99.90;;;;;;5073313;28;20027;-71
2020/12/28 03:12:02;;;;;;;2.08;0.80;;;3.60;99.90;;;;;;5073223;28;20029;-70
2020/12/28 03:14:27;;;;;;;1.33;0.73;;;3.50;99.90;;;;;;5072383;28;20466;-70
2020/12/28 03:16:53;;;;;;;1.02;0.65;;;3.50;99.90;;;;;;5072960;28;20036;-70
2020/12/28 03:19:18;;;;;;;1.08;0.80;;;3.50;99.90;;;;;;5072389;28;20040;-72
2020/12/28 03:21:44;;;;;;;3.42;1.58;;;3.50;99.90;;;;;;5055089;28;20028;-67
2020/12/28 03:24:10;;;;;;;2.13;0.73;;;3.50;99.90;;;;;;5071824;28;20020;-82
2020/12/28 03:26:35;;;;;;;2.35;1.05;;;3.50;99.90;;;;;;5073202;28;20060;-71
2020/12/28 03:29:01;;;;;;;4.80;1.40;;;3.50;99.90;;;;;;5072749;28;20029;-71
2020/12/28 03:31:27;;;;;;;4.07;1.48;;;3.50;99.90;;;;;;5072171;28;20072;-72
2020/12/28 03:33:54;;;;;;;4.82;1.60;;;3.40;99.90;;;;;;5072990;28;20119;-71
2020/12/28 03:36:19;;;;;;;3.40;1.50;;;3.40;99.90;;;;;;5072190;28;20020;-72
2020/12/28 03:38:45;;;;;;;2.33;1.10;;;3.40;99.90;;;;;;5072838;28;20093;-71
2020/12/28 03:41:12;;;;;;;2.88;1.38;;;3.40;99.90;;;;;;5054152;28;20035;-78
2020/12/28 03:43:38;;;;;;;2.08;0.95;;;3.40;99.90;;;;;;5071857;28;20031;-73
2020/12/28 03:46:03;;;;;;;1.30;0.50;;;3.30;99.90;;;;;;5072754;28;20099;-74
2020/12/28 03:48:29;;;;;;;2.35;1.23;;;3.30;99.90;;;;;;5072132;28;20025;-71
2020/12/28 03:50:55;;;;;;;4.32;1.85;;;3.30;99.90;;;;;;5072696;28;20056;-71
2020/12/28 03:53:20;;;;;;;2.65;1.33;;;3.30;99.90;;;;;;5071667;28;20033;-68
2020/12/28 03:55:46;;;;;;;3.13;0.98;;;3.30;99.90;;;;;;5072759;28;20366;-72
2020/12/28 03:58:12;;;;;;;2.50;0.68;;;3.20;99.90;;;;;;5071680;28;20032;-74
2020/12/28 04:00:37;;;;;;;2.30;0.52;;;3.20;99.90;;;;;;5072635;28;20078;-71
2020/12/28 04:03:03;;;;;;;1.60;0.88;;;3.10;99.90;;;;;;5072113;28;20029;-69
2020/12/28 04:05:29;;;;;;;3.15;1.88;;;3.10;99.90;;;;;;5071596;28;20659;-77
2020/12/28 04:07:55;;;;;;;1.92;0.90;;;3.10;99.90;;;;;;5090261;28;20024;-74
2020/12/28 04:10:21;;;;;;;0.50;0.43;;;3.00;99.90;;;;;;5091702;28;20032;-66
2020/12/28 04:12:46;;;;;;;0.88;0.30;;;3.00;99.90;;;;;;5074487;28;20032;-70
2020/12/28 04:15:12;;;;;;;1.85;0.65;;;3.00;99.90;;;;;;5091812;28;20028;-78
2020/12/28 04:17:37;;;;;;;0.30;0.30;;;2.90;99.90;;;;;;5092040;28;20112;-72
2020/12/28 04:20:04;;;;;;;0.60;0.43;;;2.90;99.90;;;;;;5092256;28;20028;-74
2020/12/28 04:22:29;;;;;;;2.88;0.98;;;2.80;99.90;;;;;;5091720;28;20020;-70
2020/12/28 04:24:55;;;;;;;0.60;0.30;;;2.70;99.90;;;;;;5092147;28;20146;-69
2020/12/28 04:27:21;;;;;;;0.65;0.40;;;2.60;99.90;;;;;;5091634;28;20101;-71
2020/12/28 04:29:48;;;;;;;1.60;0.40;;;2.60;99.90;;;;;;5091756;28;20046;-72
2020/12/28 04:32:14;;;;;;;0.80;0.35;;;2.60;99.90;;;;;;5091586;28;20043;-71
2020/12/28 04:34:39;;;;;;;0.93;0.30;;;2.60;99.90;;;;;;5091862;28;20024;-70
2020/12/28 04:37:05;;;;;;;0.63;0.52;;;2.60;99.90;;;;;;5092179;28;20458;-73
2020/12/28 04:39:30;;;;;;;1.02;0.50;;;2.60;99.90;;;;;;5091227;28;20472;-78
2020/12/28 04:41:57;;;;;;;0.35;0.35;;;2.70;99.90;;;;;;5073923;28;20552;-70
2020/12/28 04:44:23;;;;;;;1.15;0.50;;;2.70;99.90;;;;;;5090937;28;20518;-69
2020/12/28 04:46:48;;;;;;;2.10;1.10;;;2.70;99.90;;;;;;5091793;28;20024;-70
2020/12/28 04:49:14;;;;;;;0.95;0.28;;;2.80;99.90;;;;;;5090708;28;20059;-71
2020/12/28 04:51:40;;;;;;;0.77;0.32;;;2.80;99.90;;;;;;5092009;28;20028;-70
2020/12/28 04:54:06;;;;;;;1.42;0.63;;;2.90;99.90;;;;;;5092734;28;20028;-70
2020/12/28 04:56:36;;;;;;;2.30;0.90;;;2.90;99.90;;;;;;5097913;28;20027;-69
2020/12/28 04:59:02;;;;;;;0.85;0.50;;;2.90;99.90;;;;;;5098553;28;20027;-70
2020/12/28 05:01:27;;;;;;;1.65;0.57;;;2.90;99.90;;;;;;5097995;28;20032;-71
2020/12/28 05:03:54;;;;;;;2.15;0.88;;;2.90;99.90;;;;;;5098871;28;20489;-72
2020/12/28 05:06:19;;;;;;;1.55;0.68;;;2.90;99.90;;;;;;5093160;28;20037;-72
2020/12/28 05:08:45;;;;;;;2.53;0.60;;;2.90;99.90;;;;;;5078307;28;20036;-69
2020/12/28 05:11:15;;;;;;;0.55;0.50;;;3.00;99.90;;;;;;5077713;28;20077;-80
2020/12/28 05:13:50;;;;;;;0.47;0.38;;;3.00;99.90;;;;;;5078061;28;20385;-70
2020/12/28 05:16:17;;;;;;;0.68;0.50;;;3.00;99.90;;;;;;5077434;28;20032;-71
2020/12/28 05:18:51;;;;;;;0.85;0.50;;;3.10;99.90;;;;;;5077849;28;20037;-69
2020/12/28 05:21:24;;;;;;;0.85;0.50;;;3.10;99.90;;;;;;5077537;28;20036;-70
2020/12/28 05:23:49;;;;;;;0.70;0.30;;;3.20;99.90;;;;;;5078147;28;20032;-69
2020/12/28 05:26:21;;;;;;;0.40;0.30;;;3.20;99.90;;;;;;5077074;28;20020;-74
2020/12/28 05:28:53;;;;;;;0.40;0.40;;;3.30;99.90;;;;;;5078481;28;20024;-71
2020/12/28 05:31:20;;;;;;;1.17;0.60;;;3.30;99.90;;;;;;5077006;28;20055;-73
2020/12/28 05:33:46;;;;;;;0.50;0.40;;;3.30;99.90;;;;;;5078102;28;20028;-69
2020/12/28 05:36:13;;;;;;;0.70;0.63;;;3.30;99.90;;;;;;5078235;28;20043;-76
2020/12/28 05:38:43;;;;;;;1.95;0.30;;;3.40;99.90;;;;;;5078098;28;20039;-72
2020/12/28 05:41:09;;;;;;;2.75;0.43;;;3.40;99.90;;;;;;5077719;28;20033;-68
2020/12/28 05:43:34;;;;;;;0.73;0.30;;;3.40;99.90;;;;;;5076966;28;20036;-69
2020/12/28 05:46:00;;;;;;;0.70;0.40;;;3.40;99.90;;;;;;5077735;28;20455;-69
2020/12/28 05:48:26;;;;;;;0.93;0.40;;;3.50;99.90;;;;;;5077193;28;20024;-70
2020/12/28 05:50:57;;;;;;;1.13;0.40;;;3.50;99.90;;;;;;5077427;28;20048;-69
2020/12/28 05:53:26;;;;;;;1.70;0.55;;;3.50;99.90;;;;;;5077214;28;20058;-69
2020/12/28 05:55:53;;;;;;;0.30;0.20;;;3.60;99.90;;;;;;5077648;28;20067;-68
2020/12/28 05:58:20;;;;;;;2.28;0.47;;;3.60;99.90;;;;;;5077188;28;20055;-70
2020/12/28 06:00:50;;;;;;;0.45;0.40;;;3.60;99.90;;;;;;5077811;28;20119;-70
2020/12/28 06:03:25;;;;;;;1.15;0.50;;;3.60;99.90;;;;;;5077119;28;20025;-80
2020/12/28 06:05:53;;;;;;;2.95;0.50;;;3.60;99.90;;;;;;5076462;28;20056;-65
2020/12/28 06:08:19;;;;;;;1.65;0.60;;;3.60;99.90;;;;;;5094246;28;20444;-72
2020/12/28 06:10:45;;;;;;;0.88;0.50;;;3.60;99.90;;;;;;5094783;28;20140;-71
2020/12/28 06:13:23;;;;;;;2.15;0.73;;;3.50;99.90;;;;;;5094650;28;20077;-70
2020/12/28 06:16:02;;;;;;;1.10;0.52;;;3.50;99.90;;;;;;5094943;28;20043;-66
2020/12/28 06:18:28;;;;;;;0.40;0.40;;;3.50;99.90;;;;;;5059413;28;20092;-70
2020/12/28 06:20:54;;;;;;;2.13;0.55;;;3.50;99.90;;;;;;5094614;28;20028;-71
2020/12/28 06:23:29;;;;;;;3.15;0.50;;;3.40;99.90;;;;;;5093871;28;20031;-70
2020/12/28 06:25:55;;;;;;;2.15;0.65;;;3.40;99.90;;;;;;5094598;28;20024;-70
2020/12/28 06:28:28;;;;;;;1.17;0.60;;;3.50;99.90;;;;;;5093626;28;20480;-71
2020/12/28 06:31:06;;;;;;;1.40;0.60;;;3.50;99.90;;;;;;5094314;28;20044;-70
2020/12/28 06:33:33;;;;;;;3.40;0.85;;;3.40;99.90;;;;;;5093732;28;20039;-70
2020/12/28 06:35:59;;;;;;;3.10;0.63;;;3.40;99.90;;;;;;5094351;28;20149;-69
2020/12/28 06:38:25;;;;;;;1.40;0.57;;;3.50;99.90;;;;;;5093318;28;20102;-68
2020/12/28 06:40:51;;;;;;;1.85;0.68;;;3.50;99.90;;;;;;5094116;28;20027;-69
2020/12/28 06:43:20;;;;;;;0.60;0.50;;;3.40;99.90;;;;;;5093605;28;20021;-73
2020/12/28 06:45:50;;;;;;;2.22;0.68;;;3.40;99.90;;;;;;5094028;28;20027;-71
2020/12/28 06:48:25;;;;;;;0.55;0.45;;;3.40;99.90;;;;;;5093677;28;20027;-78
2020/12/28 06:50:55;;;;;;;3.22;0.73;;;3.40;99.90;;;;;;5081618;28;20170;-72
2020/12/28 06:53:22;;;;;;;2.00;0.52;;;3.40;99.90;;;;;;5082697;28;20020;-72
2020/12/28 06:55:48;;;;;;;0.90;0.57;;;3.40;99.90;;;;;;5080728;28;20420;-75
2020/12/28 06:58:14;;;;;;;2.08;0.55;;;3.50;99.90;;;;;;5082286;28;20021;-80
2020/12/28 07:00:40;;;;;;;2.05;0.57;;;3.40;99.90;;;;;;5080791;28;20477;-71
2020/12/28 07:03:12;;;;;;;1.33;0.40;;;3.40;99.90;;;;;;5080808;28;20469;-71
2020/12/28 07:05:38;;;;;;;0.93;0.40;;;3.40;99.90;;;;;;5085702;28;20052;-71
2020/12/28 07:08:04;;;;;;;1.58;0.63;;;3.40;99.90;;;;;;5081665;28;20073;-77
2020/12/28 07:10:30;;;;;;;0.98;0.60;;;3.40;99.90;;;;;;5078422;28;20036;-68
2020/12/28 07:13:05;;;;;;;4.63;0.70;;;3.30;99.90;;;;;;5081747;28;20362;-73
2020/12/28 07:15:31;;;;;;;1.45;0.50;;;3.30;99.90;;;;;;5081133;28;20393;-69
2020/12/28 07:18:07;;;;;;;2.25;0.50;;;3.30;99.90;;;;;;5081458;28;20127;-70
2020/12/28 07:20:33;;;;;;;1.10;0.60;;;3.30;99.90;;;;;;5060986;28;20032;-67
2020/12/28 07:22:59;;;;;;;1.52;0.57;;;3.30;99.90;;;;;;5081135;28;20382;-72
2020/12/28 07:25:25;;;;;;;1.95;0.70;;;3.30;99.90;;;;;;5083064;28;20070;-72
2020/12/28 07:27:51;;;;;;;2.28;0.88;;;3.30;99.90;;;;;;5085235;28;20103;-68
2020/12/28 07:30:18;;;;;;;1.88;0.77;;;3.20;99.90;;;;;;5082129;28;20119;-75
2020/12/28 07:32:44;;;;;;;3.15;0.65;;;3.20;99.90;;;;;;5083550;28;20074;-71
2020/12/28 07:35:09;;;;;;;0.98;0.52;;;3.30;99.90;;;;;;5086895;28;20028;-71
2020/12/28 07:37:39;;;;;;;2.00;1.02;;;3.30;99.90;;;;;;5078441;28;20638;-67
2020/12/28 07:40:06;;;;;;;6.22;2.15;;;3.20;99.90;;;;;;5079859;28;20055;-68
2020/12/28 07:42:32;;;;;;;2.55;0.88;;;3.20;99.90;;;;;;5080640;28;20085;-67
2020/12/28 07:45:07;;;;;;;1.95;0.80;;;3.20;99.90;;;;;;5082160;28;20032;-72
2020/12/28 07:47:53;;;;;;;1.90;0.90;;;3.20;99.90;;;;;;5082273;28;20366;-73
2020/12/28 07:50:19;;;;;;;4.63;1.00;;;3.20;99.90;;;;;;5091809;28;20052;-72
2020/12/28 07:52:58;;;;;;;1.25;0.68;;;3.20;99.90;;;;;;5092993;28;20055;-70
2020/12/28 07:55:27;;;;;;;5.78;1.02;;;3.20;99.90;;;;;;5092009;28;20114;-69
2020/12/28 07:58:21;;;;;;;2.50;0.80;;;3.20;99.90;;;;;;5092152;28;20076;-72
2020/12/28 08:00:50;;;;;;;1.02;0.80;;;3.20;99.90;;;;;;5090872;28;20059;-73
2020/12/28 08:03:41;;;;;;;1.77;0.77;;;3.20;99.90;;;;;;5092548;28;20476;-75
2020/12/28 08:06:08;;;;;;;2.63;0.80;;;3.10;99.90;;;;;;5089366;28;20032;-72
2020/12/28 08:08:35;;;;;;;2.35;1.10;;;3.10;99.90;;;;;;5073318;28;20103;-74
2020/12/28 08:11:03;;;;;;;1.40;0.90;;;3.20;99.90;;;;;;5071457;28;20103;-74
2020/12/28 08:13:33;;;;;;;2.60;0.93;;;3.10;99.90;;;;;;5070708;28;20897;-71
2020/12/28 08:16:13;;;;;;;2.85;0.80;;;3.10;99.90;;;;;;5071985;28;20108;-73
2020/12/28 08:18:51;;;;;;;2.05;0.80;;;3.10;99.90;;;;;;5071288;28;20031;-78
2020/12/28 08:21:17;;;;;;;1.73;0.93;;;3.10;99.90;;;;;;5071743;28;20141;-83
2020/12/28 08:23:55;;;;;;;0.55;0.45;;;3.10;99.90;;;;;;5071744;28;20082;-70
2020/12/28 08:26:23;;;;;;;1.00;0.57;;;3.10;99.90;;;;;;5053097;28;20492;-85
2020/12/28 08:28:54;;;;;;;0.40;0.40;;;3.10;99.90;;;;;;5071615;28;20030;-74
2020/12/28 08:31:34;;;;;;;0.80;0.40;;;3.20;99.90;;;;;;5070818;28;20047;-83
2020/12/28 08:34:04;;;;;;;0.88;0.60;;;3.30;99.90;;;;;;5072073;28;20078;-73
2020/12/28 08:36:31;;;;;;;2.60;0.40;;;3.30;99.90;;;;;;5070937;28;20462;-72
2020/12/28 08:38:57;;;;;;;0.60;0.50;;;3.30;99.90;;;;;;5071889;28;20639;-73
2020/12/28 08:41:24;;;;;;;0.75;0.20;;;3.40;99.90;;;;;;5071049;28;20028;-73
2020/12/28 08:43:50;;;;;;;2.22;0.52;;;3.40;99.90;;;;;;5072206;28;20025;-73
2020/12/28 08:46:23;;;;;;;0.47;0.17;;;3.40;99.90;;;;;;5071565;28;20427;-73
2020/12/28 08:48:50;;;;;;;0.93;0.60;;;3.40;99.90;;;;;;5055841;28;20096;-72
2020/12/28 08:51:18;;;;;;;0.70;0.45;;;3.40;99.90;;;;;;5071951;28;20028;-75
2020/12/28 08:53:45;;;;;;;0.47;0.43;;;3.50;99.90;;;;;;5071011;28;20025;-70
2020/12/28 08:56:11;;;;;;;1.42;0.60;;;3.50;99.90;;;;;;5071687;28;20111;-76
2020/12/28 08:58:37;;;;;;;1.25;0.55;;;3.60;99.90;;;;;;5078427;28;20024;-72
2020/12/28 09:01:10;;;;;;;2.15;1.00;;;3.50;99.90;;;;;;5094291;28;20028;-73
2020/12/28 09:03:37;;;;;;;0.98;0.70;;;3.50;99.90;;;;;;5089254;28;20024;-73
2020/12/28 09:06:04;;;;;;;1.42;0.50;;;3.60;99.90;;;;;;5090243;28;20106;-75
2020/12/28 09:08:31;;;;;;;0.95;0.60;;;3.70;99.90;;;;;;5070867;28;20017;-78
2020/12/28 09:10:57;;;;;;;3.75;0.90;;;3.70;99.90;;;;;;5054657;28;20388;-76
2020/12/28 09:13:24;;;;;;;0.90;0.65;;;3.70;99.90;;;;;;5071484;28;20028;-77
2020/12/28 09:15:50;;;;;;;1.27;0.60;;;3.70;99.90;;;;;;5071533;28;20071;-75
2020/12/28 09:18:16;;;;;;;3.88;0.63;;;3.70;99.90;;;;;;5071659;28;20461;-74
2020/12/28 09:20:42;;;;;;;1.95;0.50;;;3.80;99.90;;;;;;5071277;28;20037;-70
2020/12/28 09:23:08;;;;;;;0.70;0.70;;;3.80;99.90;;;;;;5053371;28;20059;-71
2020/12/28 09:25:35;;;;;;;1.27;0.88;;;3.80;99.90;;;;;;5070749;28;20424;-72
2020/12/28 09:28:01;;;;;;;1.25;0.88;;;3.80;99.90;;;;;;5071451;28;20032;-78
2020/12/28 09:30:27;;;;;;;1.60;1.00;;;3.70;99.90;;;;;;5070320;28;20051;-64
2020/12/28 09:32:53;;;;;;;1.55;0.70;;;3.70;99.90;;;;;;5071218;28;20104;-68
2020/12/28 09:35:19;;;;;;;1.35;0.93;;;3.80;99.90;;;;;;5070765;28;20028;-74
2020/12/28 09:37:45;;;;;;;3.17;0.98;;;3.80;99.90;;;;;;5070411;28;20078;-67
2020/12/28 09:40:14;;;;;;;2.10;1.05;;;3.80;99.90;;;;;;5075336;28;20028;-72
2020/12/28 09:42:41;;;;;;;1.70;0.75;;;3.80;99.90;;;;;;5093365;28;20066;-69
2020/12/28 09:45:36;;;;;;;3.05;0.85;;;3.80;99.90;;;;;;5095203;28;20024;-71
2020/12/28 09:47:53;;;;;;;1.90;1.50;;;3.90;99.90;;;;;;5094920;28;20059;-71
2020/12/28 09:50:18;;;;;;;4.55;3.08;;;4.00;99.90;;;;;;5094786;28;20090;-71
2020/12/28 09:52:44;;;;;;;2.50;1.50;;;4.00;99.90;;;;;;5094369;28;20105;-71
2020/12/28 09:55:09;;;;;;;2.22;1.55;;;4.00;99.90;;;;;;5077021;28;20405;-72
2020/12/28 09:57:35;;;;;;;4.03;1.73;;;4.10;99.90;;;;;;5093940;28;20373;-74
2020/12/28 10:00:01;;;;;;;2.72;2.00;;;4.10;99.90;;;;;;5094788;28;20146;-68
2020/12/28 10:02:26;;;;;;;3.70;1.60;;;4.10;99.90;;;;;;5094286;28;20061;-72
2020/12/28 10:04:52;;;;;;;4.07;2.30;;;4.10;99.90;;;;;;5056805;28;20521;-71
2020/12/28 10:07:18;;;;;;;5.88;3.17;;;4.10;99.90;;;;;;5087797;28;20032;-72
2020/12/28 10:09:43;;;;;;;8.60;2.88;;;4.20;99.90;;;;;;5094762;28;20545;-71
2020/12/28 10:12:09;;;;;;;3.10;1.83;;;4.20;99.90;;;;;;5076785;28;20381;-72
2020/12/28 10:14:34;;;;;;;4.72;2.28;;;4.20;99.90;;;;;;5097313;28;20043;-71
2020/12/28 10:17:00;;;;;;;3.35;1.27;;;4.20;99.90;;;;;;5115127;28;20358;-66
2020/12/28 10:19:26;;;;;;;2.22;1.60;;;4.20;99.90;;;;;;5114527;28;20030;-73
2020/12/28 10:21:51;;;;;;;2.72;1.80;;;4.20;99.90;;;;;;5115333;28;20031;-72
2020/12/28 10:24:17;;;;;;;2.67;1.60;;;4.30;99.90;;;;;;5115046;28;20107;-73
2020/12/28 10:26:43;;;;;;;2.42;1.60;;;4.30;99.90;;;;;;5115322;28;20027;-74
2020/12/28 10:29:08;;;;;;;3.15;1.85;;;4.30;99.90;;;;;;5115100;28;20019;-72
2020/12/28 10:31:34;;;;;;;2.70;1.75;;;4.40;99.90;;;;;;5096859;28;20514;-70
2020/12/28 10:34:00;;;;;;;2.65;1.70;;;4.40;99.90;;;;;;5087140;28;20032;-72
2020/12/28 10:36:28;;;;;;;2.17;1.40;;;4.40;99.90;;;;;;5074406;28;20020;-78
2020/12/28 10:38:54;;;;;;;2.63;1.67;;;4.40;99.90;;;;;;5074527;28;20034;-72
2020/12/28 10:41:27;;;;;;;2.28;1.90;;;4.40;99.90;;;;;;5056768;28;20487;-75
2020/12/28 10:43:54;;;;;;;3.20;2.45;;;4.40;99.90;;;;;;5056253;28;20496;-76
2020/12/28 10:46:19;;;;;;;2.28;2.03;;;4.40;99.90;;;;;;5073688;28;20468;-71
2020/12/28 10:48:45;;;;;;;3.08;1.80;;;4.40;99.90;;;;;;5054694;28;20062;-73
2020/12/28 10:51:12;;;;;;;2.20;1.88;;;4.40;99.90;;;;;;5074154;28;20394;-73
2020/12/28 10:53:38;;;;;;;3.40;2.70;;;4.40;99.90;;;;;;5073563;28;20041;-72
2020/12/28 10:56:05;;;;;;;4.03;2.63;;;4.40;99.90;;;;;;5074127;28;20040;-69
2020/12/28 10:58:31;;;;;;;4.43;2.47;;;4.40;99.90;;;;;;5073379;28;20056;-71
2020/12/28 11:00:57;;;;;;;3.17;2.63;;;4.40;99.90;;;;;;5073822;28;20071;-72
2020/12/28 11:03:23;;;;;;;4.60;2.80;;;4.40;99.90;;;;;;5073522;28;20469;-83
2020/12/28 11:05:48;;;;;;;3.20;2.53;;;4.40;99.90;;;;;;5073034;28;20025;-71
2020/12/28 11:08:14;;;;;;;4.20;2.65;;;4.50;99.90;;;;;;5075540;28;20538;-71
2020/12/28 11:10:40;;;;;;;3.85;2.83;;;4.40;99.90;;;;;;5075645;28;20028;-69
2020/12/28 11:13:07;;;;;;;5.93;2.90;;;4.40;99.90;;;;;;5075480;28;20465;-77
2020/12/28 11:15:33;;;;;;;4.63;3.00;;;4.40;99.90;;;;;;5092757;28;20092;-71
2020/12/28 11:18:00;;;;;;;2.75;2.47;;;4.40;99.90;;;;;;5075216;28;20024;-72
2020/12/28 11:20:26;;;;;;;4.55;3.17;;;4.40;99.90;;;;;;5092334;28;20032;-81
2020/12/28 11:22:52;;;;;;;4.32;2.88;;;4.40;99.90;;;;;;5093626;28;20386;-76
2020/12/28 11:25:17;;;;;;;4.03;2.50;;;4.40;99.90;;;;;;5093446;28;20408;-71
2020/12/28 11:27:43;;;;;;;3.00;2.25;;;4.40;99.90;;;;;;5092614;28;20035;-74
2020/12/28 11:30:09;;;;;;;4.20;2.25;;;4.40;99.90;;;;;;5093302;28;20099;-78
2020/12/28 11:32:35;;;;;;;3.88;2.63;;;4.50;99.90;;;;;;5092611;28;20032;-74
2020/12/28 11:35:00;;;;;;;3.03;2.20;;;4.40;99.90;;;;;;5061794;28;20449;-75
2020/12/28 11:37:26;;;;;;;3.53;2.42;;;4.40;99.90;;;;;;5072863;28;20029;-79
2020/12/28 11:39:52;;;;;;;3.45;2.17;;;4.60;99.90;;;;;;5054768;28;20039;-73
2020/12/28 11:42:18;;;;;;;3.30;2.20;;;4.60;99.90;;;;;;5071452;28;20507;-78
2020/12/28 11:44:44;;;;;;;3.15;2.45;;;4.70;99.90;;;;;;5070573;28;20845;-70
2020/12/28 11:47:10;;;;;;;2.45;1.90;;;4.80;99.90;;;;;;5072060;28;20032;-72
2020/12/28 11:49:36;;;;;;;4.75;2.80;;;4.80;99.90;;;;;;5070904;28;20501;-74
2020/12/28 11:52:02;;;;;;;3.45;2.15;;;4.90;99.90;;;;;;5071427;28;20033;-71
2020/12/28 11:54:28;;;;;;;6.07;2.15;;;5.00;99.90;;;;;;5052992;28;20032;-76
2020/12/28 11:56:54;;;;;;;3.95;2.15;;;5.00;99.90;;;;;;5075931;28;20082;-76
2020/12/28 11:59:19;;;;;;;3.53;2.38;;;5.00;99.90;;;;;;5072196;28;20382;-74
2020/12/28 12:01:49;;;;;;;3.88;2.50;;;5.20;99.90;;;;;;5071805;28;20028;-74
2020/12/28 12:04:15;;;;;;;6.93;5.13;;;5.20;99.90;;;;;;5071042;28;20033;-75
2020/12/28 12:06:41;;;;;;;3.17;2.42;;;5.20;99.90;;;;;;5078810;28;20445;-74
2020/12/28 12:09:12;;;;;;;2.40;2.03;;;5.20;99.90;;;;;;5092093;28;20032;-77
2020/12/28 12:11:45;;;;;;;3.38;2.40;;;5.10;99.90;;;;;;5072943;28;20102;-69
2020/12/28 12:14:12;;;;;;;5.50;2.45;;;5.10;99.90;;;;;;5092240;28;20024;-73
2020/12/28 12:16:38;;;;;;;3.08;2.30;;;5.10;99.90;;;;;;5091268;28;20077;-74
2020/12/28 12:19:04;;;;;;;4.38;2.30;;;5.10;99.90;;;;;;5092036;28;20098;-69
2020/12/28 12:21:31;;;;;;;4.25;2.47;;;5.20;99.90;;;;;;5091335;28;20119;-72
2020/12/28 12:23:57;;;;;;;3.72;2.25;;;5.20;99.90;;;;;;5092462;28;20032;-71
2020/12/28 12:26:24;;;;;;;2.97;1.85;;;5.20;99.90;;;;;;5092123;28;20039;-74
2020/12/28 12:28:51;;;;;;;2.78;2.00;;;5.20;99.90;;;;;;5092322;28;20082;-73
2020/12/28 12:31:17;;;;;;;4.22;2.50;;;5.20;99.90;;;;;;5074658;28;20546;-73
2020/12/28 12:33:45;;;;;;;3.70;2.28;;;5.20;99.90;;;;;;5089057;28;20058;-73
2020/12/28 12:36:12;;;;;;;2.95;2.13;;;5.20;99.90;;;;;;5071496;28;20025;-72
2020/12/28 12:38:38;;;;;;;4.47;2.25;;;5.20;99.90;;;;;;5071788;28;20032;-73
2020/12/28 12:41:04;;;;;;;2.65;1.70;;;5.10;99.90;;;;;;5072390;28;20539;-72
2020/12/28 12:43:30;;;;;;;4.53;2.28;;;5.00;99.90;;;;;;5071203;28;20060;-74
2020/12/28 12:45:56;;;;;;;4.85;2.80;;;5.00;99.90;;;;;;5071581;28;20049;-73
2020/12/28 12:48:22;;;;;;;4.95;2.83;;;4.90;99.90;;;;;;5071812;28;20104;-72
2020/12/28 12:50:49;;;;;;;4.88;2.85;;;4.80;99.90;;;;;;5070378;28;20048;-74
2020/12/28 12:53:16;;;;;;;6.82;3.72;;;4.60;99.90;;;;;;5071647;28;20362;-71
2020/12/28 12:55:42;;;;;;;3.60;2.42;;;4.50;99.90;;;;;;5070596;28;20854;-72
2020/12/28 12:58:08;;;;;;;5.85;2.70;;;4.40;99.90;;;;;;5071241;28;20029;-74